Time;durP1;ratioP1;P1;durP2;ratioP2;P2;SDS_P1;SDS_P2;PMS_P1;PMS_P2;Temp;Humidity;BMP_temperature;BMP_pressure;BME280_temperature;BME280_humidity;BME280_pressure;Samples;Min_cycle;Max_cycle;Signal;HPM_P1;HPM_P2
2023/01/28 00:01:09;;;;;;;47.60;21.80;;;;;;;-2.01;100.00;98341.33;108797;1235;61225;-78
2023/01/28 00:03:36;;;;;;;33.40;16.90;;;;;;;-1.98;100.00;98339.60;109271;1231;61147;-77
2023/01/28 00:06:11;;;;;;;41.00;19.40;;;;;;;-1.96;100.00;98337.45;110559;1231;74365;-78
2023/01/28 00:08:37;;;;;;;47.50;20.50;;;;;;;-1.97;100.00;98339.69;109328;1232;69943;-77
2023/01/28 00:11:05;;;;;;;38.60;20.20;;;;;;;-1.94;100.00;98336.13;109113;1237;61118;-78
2023/01/28 00:13:31;;;;;;;41.50;18.40;;;;;;;-1.99;100.00;98334.36;109326;1232;61232;-78
2023/01/28 00:15:59;;;;;;;39.60;20.10;;;;;;;-1.96;100.00;98338.35;110264;1231;61335;-79
2023/01/28 00:18:27;;;;;;;40.70;19.10;;;;;;;-1.94;100.00;98335.71;109669;1236;74409;-78
2023/01/28 00:20:59;;;;;;;58.80;22.10;;;;;;;-2.04;100.00;98334.19;109146;1231;70927;-79
2023/01/28 00:23:30;;;;;;;37.30;17.20;;;;;;;-2.08;100.00;98332.81;109356;1237;62445;-78
2023/01/28 00:26:00;;;;;;;37.60;18.30;;;;;;;-2.03;100.00;98332.14;110414;1231;61200;-79
2023/01/28 00:28:27;;;;;;;75.90;30.20;;;;;;;-2.05;100.00;98332.52;109336;1232;61179;-77
2023/01/28 00:30:53;;;;;;;67.10;29.90;;;;;;;-2.09;100.00;98331.02;109197;1231;61347;-78
2023/01/28 00:33:20;;;;;;;41.40;18.40;;;;;;;-2.06;100.00;98330.02;108991;1231;61413;-78
2023/01/28 00:35:46;;;;;;;38.60;17.80;;;;;;;-2.04;100.00;98332.98;110680;1231;61110;-79
2023/01/28 00:38:13;;;;;;;41.00;20.30;;;;;;;-2.03;100.00;98334.73;109384;1231;61070;-77
2023/01/28 00:40:39;;;;;;;92.90;39.50;;;;;;;-2.02;100.00;98334.02;109030;1232;61171;-77
2023/01/28 00:43:05;;;;;;;51.50;22.80;;;;;;;-2.09;100.00;98333.51;109164;1231;61673;-77
2023/01/28 00:45:32;;;;;;;42.60;21.00;;;;;;;-2.06;100.00;98335.09;110022;1232;61293;-77
2023/01/28 00:47:59;;;;;;;61.20;36.00;;;;;;;-2.04;100.00;98333.84;109079;1237;62026;-77
2023/01/28 00:50:25;;;;;;;94.20;42.10;;;;;;;-2.10;100.00;98335.77;109103;1237;61204;-79
2023/01/28 00:52:51;;;;;;;58.90;28.90;;;;;;;-2.09;100.00;98338.33;109489;1236;61215;-77
2023/01/28 00:55:18;;;;;;;69.00;33.90;;;;;;;-2.03;100.00;98340.80;109756;1231;61302;-77
2023/01/28 00:57:45;;;;;;;47.70;21.20;;;;;;;-1.99;100.00;98341.70;110616;1235;61092;-78
2023/01/28 01:00:12;;;;;;;44.60;24.30;;;;;;;-2.00;100.00;98344.41;109229;1232;61226;-77
2023/01/28 01:02:38;;;;;;;48.50;27.30;;;;;;;-1.99;100.00;98344.83;109237;1236;61233;-77
2023/01/28 01:05:06;;;;;;;44.30;20.60;;;;;;;-2.00;100.00;98344.57;109536;1231;61191;-77
2023/01/28 01:07:40;;;;;;;50.30;23.40;;;;;;;-1.96;100.00;98345.30;110641;1232;73473;-79
2023/01/28 01:10:14;;;;;;;81.10;40.30;;;;;;;-1.95;100.00;98349.20;108731;1237;62316;-77
2023/01/28 01:12:41;;;;;;;49.20;25.00;;;;;;;-1.94;100.00;98347.33;108866;1237;71342;-77
2023/01/28 01:15:09;;;;;;;41.50;20.20;;;;;;;-1.96;100.00;98347.74;109113;1231;61635;-78
2023/01/28 01:17:36;;;;;;;44.60;21.10;;;;;;;-2.02;100.00;98340.34;109581;1231;61127;-78
2023/01/28 01:20:04;;;;;;;54.60;25.10;;;;;;;-2.02;100.00;98344.02;109027;1237;74468;-77
2023/01/28 01:22:34;;;;;;;41.80;21.30;;;;;;;-1.99;100.00;98344.85;109008;1231;70792;-78
2023/01/28 01:25:02;;;;;;;39.30;18.20;;;;;;;-1.98;100.00;98344.25;109868;1235;71357;-77
2023/01/28 01:27:30;;;;;;;42.80;20.70;;;;;;;-2.02;100.00;98343.82;110305;1237;61181;-78
2023/01/28 01:29:57;;;;;;;45.90;19.50;;;;;;;-2.03;100.00;98345.85;109239;1236;61251;-78
2023/01/28 01:32:36;;;;;;;57.10;32.50;;;;;;;-2.04;100.00;98343.92;108999;1231;73309;-79
2023/01/28 01:35:04;;;;;;;73.10;41.40;;;;;;;-2.04;100.00;98343.65;109676;1231;62196;-79
2023/01/28 01:37:31;;;;;;;69.10;40.40;;;;;;;-2.02;100.00;98346.65;110812;1231;62725;-77
2023/01/28 01:39:57;;;;;;;70.80;37.40;;;;;;;-2.00;100.00;98346.53;109081;1237;61986;-79
2023/01/28 01:42:27;;;;;;;60.40;29.80;;;;;;;-1.99;100.00;98344.16;109051;1231;61255;-79
2023/01/28 01:45:12;;;;;;;48.80;22.00;;;;;;;-1.97;100.00;98346.27;109054;1236;65828;-77
2023/01/28 01:47:56;;;;;;;40.80;21.40;;;;;;;-1.93;100.00;98348.88;110183;1236;69838;-77
2023/01/28 01:50:22;;;;;;;76.30;38.70;;;;;;;-1.91;100.00;98352.45;109067;1232;71739;-77
2023/01/28 01:52:50;;;;;;;43.70;22.20;;;;;;;-1.93;100.00;98349.41;109112;1240;61181;-77
2023/01/28 01:55:18;;;;;;;40.30;19.60;;;;;;;-1.99;100.00;98353.61;109711;1231;61308;-79
2023/01/28 01:57:44;;;;;;;53.90;32.90;;;;;;;-1.99;100.00;98357.77;109708;1231;73309;-78
2023/01/28 02:00:11;;;;;;;47.20;25.70;;;;;;;-2.04;100.00;98355.59;109261;1236;61273;-78
2023/01/28 02:02:39;;;;;;;57.10;30.40;;;;;;;-2.04;100.00;98355.73;109098;1231;61332;-79
2023/01/28 02:05:07;;;;;;;38.20;19.30;;;;;;;-2.02;100.00;98358.73;109774;1231;61270;-77
2023/01/28 02:07:33;;;;;;;46.80;23.30;;;;;;;-2.09;100.00;98361.29;110382;1231;59300;-77
2023/01/28 02:10:00;;;;;;;78.70;37.50;;;;;;;-2.09;100.00;98360.84;108724;1239;74454;-79
2023/01/28 02:12:29;;;;;;;40.70;19.40;;;;;;;-2.07;100.00;98364.08;108949;1231;61226;-77
2023/01/28 02:15:00;;;;;;;67.50;40.20;;;;;;;-2.10;100.00;98360.01;109489;1231;71306;-78
2023/01/28 02:17:27;;;;;;;49.70;26.70;;;;;;;-2.16;100.00;98363.25;110376;1232;59373;-77
2023/01/28 02:19:53;;;;;;;128.00;60.40;;;;;;;-2.20;100.00;98364.45;109252;1232;61194;-78
2023/01/28 02:22:47;;;;;;;122.80;66.10;;;;;;;-2.20;100.00;98362.86;109569;1236;74578;-78
2023/01/28 02:25:38;;;;;;;68.10;35.20;;;;;;;-2.18;100.00;98362.70;110029;1231;61337;-79
2023/01/28 02:28:55;;;;;;;36.40;20.30;;;;;;;-2.21;100.00;98364.94;110294;1231;72455;-79
2023/01/28 02:31:29;;;;;;;76.70;43.70;;;;;;;-2.26;100.00;98365.90;108974;1236;61304;-79
2023/01/28 02:34:04;;;;;;;63.50;30.20;;;;;;;-2.24;100.00;98371.88;108744;1232;61346;-77
2023/01/28 02:36:56;;;;;;;42.00;21.60;;;;;;;-2.25;100.00;98367.75;110998;1231;74434;-77
2023/01/28 02:39:31;;;;;;;46.90;27.70;;;;;;;-2.22;100.00;98368.19;109393;1231;69911;-77
2023/01/28 02:42:02;;;;;;;48.40;21.00;;;;;;;-2.24;100.00;98368.86;109090;1234;71550;-78
2023/01/28 02:44:29;;;;;;;43.90;20.70;;;;;;;-2.20;100.00;98367.71;109392;1232;61325;-77
2023/01/28 02:49:53;;;;;;;50.60;25.10;;;;;;;-2.20;100.00;98362.54;109175;1232;65887;-79
2023/01/28 02:55:37;;;;;;;45.50;22.50;;;;;;;-2.17;100.00;98358.46;109984;1231;72415;-79
2023/01/28 02:58:17;;;;;;;39.00;20.50;;;;;;;-2.18;100.00;98359.08;110369;1232;61221;-77
2023/01/28 03:00:46;;;;;;;;;;;;;;;-2.23;100.00;98359.19;109563;1231;61072;-79
2023/01/28 03:03:20;;;;;;;60.50;27.40;;;;;;;-2.21;100.00;98358.30;109137;1237;73393;-78
2023/01/28 03:06:04;;;;;;;60.00;26.40;;;;;;;-2.22;100.00;98360.02;110172;1231;62314;-79
2023/01/28 03:36:52;;;;;;;45.80;21.10;;;;;;;-2.31;100.00;98362.67;110099;1231;72418;-77
2023/01/28 03:39:28;;;;;;;75.70;35.80;;;;;;;-2.31;100.00;98360.34;109121;1236;61306;-77
2023/01/28 03:42:16;;;;;;;39.70;20.80;;;;;;;-2.37;100.00;98361.64;108809;1238;61155;-78
2023/01/28 03:44:52;;;;;;;44.40;21.00;;;;;;;-2.39;100.00;98361.04;109421;1231;74368;-77
2023/01/28 03:47:20;;;;;;;43.60;20.50;;;;;;;-2.36;100.00;98362.38;109890;1236;70937;-77
2023/01/28 03:49:48;;;;;;;37.80;18.10;;;;;;;-2.32;100.00;98362.94;109085;1231;71389;-77
2023/01/28 03:52:16;;;;;;;47.30;23.90;;;;;;;-2.29;100.00;98358.33;109317;1236;61229;-76
2023/01/28 03:54:43;;;;;;;37.60;18.20;;;;;;;-2.28;100.00;98363.27;110051;1231;61197;-77
2023/01/28 03:57:09;;;;;;;59.60;34.40;;;;;;;-2.31;100.00;98363.82;110937;1236;73339;-76
2023/01/28 03:59:36;;;;;;;77.00;40.40;;;;;;;-2.27;100.00;98360.34;109956;1231;61207;-76
2023/01/28 04:02:02;;;;;;;60.10;30.60;;;;;;;-2.29;100.00;98364.01;109452;1236;61357;-77
2023/01/28 04:04:31;;;;;;;42.70;21.60;;;;;;;-2.27;100.00;98368.79;109196;1236;61284;-77
2023/01/28 04:06:57;;;;;;;38.80;21.00;;;;;;;-2.26;100.00;98364.92;110827;1237;61298;-76
2023/01/28 04:09:24;;;;;;;48.90;21.40;;;;;;;-2.22;100.00;98366.31;109432;1236;61441;-77
2023/01/28 04:11:50;;;;;;;43.20;21.70;;;;;;;-2.30;100.00;98368.92;108901;1231;61331;-79
2023/01/28 04:14:17;;;;;;;46.50;19.90;;;;;;;-2.27;100.00;98366.75;109403;1231;61322;-80
2023/01/28 04:16:43;;;;;;;59.60;27.00;;;;;;;-2.25;100.00;98369.42;110576;1236;61365;-78
2023/01/28 04:19:11;;;;;;;41.00;20.50;;;;;;;-2.25;100.00;98368.31;108700;1235;61414;-78
2023/01/28 04:21:38;;;;;;;49.80;25.60;;;;;;;-2.30;100.00;98380.45;108959;1231;73346;-79
2023/01/28 04:24:05;;;;;;;44.60;21.10;;;;;;;-2.31;100.00;98384.08;109729;1237;70399;-78
2023/01/28 04:26:31;;;;;;;53.70;24.50;;;;;;;-2.30;100.00;98382.91;111179;1231;72416;-78
2023/01/28 04:28:58;;;;;;;44.00;22.30;;;;;;;-2.27;100.00;98381.98;109031;1236;61281;-75
2023/01/28 04:31:24;;;;;;;47.00;24.90;;;;;;;-2.34;100.00;98383.30;109163;1236;60145;-77
2023/01/28 04:33:50;;;;;;;39.10;18.20;;;;;;;-2.29;100.00;98387.57;109111;1231;61247;-78
2023/01/28 04:36:17;;;;;;;43.70;22.10;;;;;;;-2.29;100.00;98389.52;110953;1235;61073;-77
2023/01/28 04:38:43;;;;;;;38.70;18.20;;;;;;;-2.32;100.00;98390.95;109161;1237;61386;-79
2023/01/28 04:41:10;;;;;;;47.20;25.70;;;;;;;-2.30;100.00;98393.11;109240;1231;61262;-79
2023/01/28 04:43:37;;;;;;;38.70;18.50;;;;;;;-2.30;100.00;98395.10;109188;1236;61236;-77
2023/01/28 04:46:04;;;;;;;42.80;23.30;;;;;;;-2.33;100.00;98396.33;110783;1231;61108;-78
2023/01/28 04:48:31;;;;;;;41.10;20.50;;;;;;;-2.32;100.00;98393.77;109767;1231;69924;-78
2023/01/28 04:50:57;;;;;;;45.60;20.30;;;;;;;-2.29;100.00;98393.40;109155;1231;61200;-77
2023/01/28 04:53:23;;;;;;;42.40;20.40;;;;;;;-2.29;100.00;98391.73;109390;1237;61411;-78
2023/01/28 04:55:50;;;;;;;40.60;21.60;;;;;;;-2.27;100.00;98392.23;110050;1231;61185;-77
2023/01/28 04:58:16;;;;;;;42.90;22.20;;;;;;;-2.28;100.00;98392.15;109438;1231;61203;-78
2023/01/28 05:00:43;;;;;;;40.40;18.70;;;;;;;-2.29;100.00;98395.21;109190;1232;62232;-77
2023/01/28 05:03:09;;;;;;;39.20;21.80;;;;;;;-2.29;100.00;98396.80;109092;1231;61242;-78
2023/01/28 05:05:36;;;;;;;51.40;30.40;;;;;;;-2.29;100.00;98400.80;110058;1231;61241;-79
2023/01/28 05:08:03;;;;;;;66.80;33.40;;;;;;;-2.27;100.00;98401.99;109808;1236;61194;-77
2023/01/28 05:10:29;;;;;;;40.40;20.40;;;;;;;-2.26;100.00;98406.34;109693;1231;73959;-78
2023/01/28 05:12:56;;;;;;;35.60;19.00;;;;;;;-2.29;100.00;98405.21;109071;1232;61335;-79
2023/01/28 05:15:22;;;;;;;44.90;25.70;;;;;;;-2.30;100.00;98400.55;110448;1231;61143;-79
2023/01/28 05:17:49;;;;;;;39.00;17.80;;;;;;;-2.28;100.00;98399.09;110495;1231;61229;-78
2023/01/28 05:20:15;;;;;;;42.40;21.60;;;;;;;-2.29;100.00;98397.66;109032;1236;59533;-78
2023/01/28 05:22:41;;;;;;;50.80;21.50;;;;;;;-2.31;100.00;98397.91;109523;1236;61231;-78
2023/01/28 05:25:08;;;;;;;52.10;26.20;;;;;;;-2.33;100.00;98400.98;109696;1231;61226;-78
2023/01/28 05:27:34;;;;;;;50.00;23.20;;;;;;;-2.32;100.00;98403.79;110936;1231;59305;-78
2023/01/28 05:30:01;;;;;;;40.00;20.00;;;;;;;-2.33;100.00;98409.61;109030;1235;61410;-78
2023/01/28 05:32:27;;;;;;;40.10;18.70;;;;;;;-2.33;100.00;98410.91;108712;1237;62007;-78
2023/01/28 05:34:54;;;;;;;46.60;23.30;;;;;;;-2.33;100.00;98413.98;109684;1231;61488;-77
2023/01/28 05:37:20;;;;;;;34.90;18.30;;;;;;;-2.34;100.00;98415.89;111164;1231;61209;-78
2023/01/28 05:39:46;;;;;;;55.70;29.80;;;;;;;-2.36;100.00;98415.99;109102;1239;61392;-77
2023/01/28 05:42:14;;;;;;;45.70;22.00;;;;;;;-2.38;100.00;98411.31;109272;1231;61242;-77
2023/01/28 05:44:41;;;;;;;42.20;21.20;;;;;;;-2.42;100.00;98410.70;109242;1236;61186;-78
2023/01/28 05:47:07;;;;;;;41.20;22.90;;;;;;;-2.45;100.00;98410.06;111760;1235;59346;-79
2023/01/28 05:49:33;;;;;;;35.30;19.00;;;;;;;-2.41;100.00;98416.42;109247;1231;59321;-78
2023/01/28 05:52:01;;;;;;;37.30;20.20;;;;;;;-2.40;100.00;98417.05;109089;1231;61543;-78
2023/01/28 05:54:27;;;;;;;40.70;18.70;;;;;;;-2.41;100.00;98422.17;108997;1236;61222;-78
2023/01/28 05:56:54;;;;;;;79.90;35.70;;;;;;;-2.35;100.00;98419.95;111155;1231;59501;-77
2023/01/28 05:59:20;;;;;;;69.20;32.90;;;;;;;-2.29;100.00;98427.39;109607;1234;61213;-78
2023/01/28 06:01:47;;;;;;;36.80;19.00;;;;;;;-2.28;100.00;98430.27;109303;1236;61239;-78
2023/01/28 06:04:15;;;;;;;104.20;57.40;;;;;;;-2.27;100.00;98428.67;109316;1237;71309;-77
2023/01/28 06:06:41;;;;;;;43.50;25.20;;;;;;;-2.21;100.00;98433.52;111104;1231;59425;-76
2023/01/28 06:09:07;;;;;;;42.40;22.60;;;;;;;-2.16;100.00;98434.30;109054;1238;61177;-76
2023/01/28 06:11:34;;;;;;;37.20;19.20;;;;;;;-2.09;100.00;98438.33;109119;1231;61330;-77
2023/01/28 06:14:00;;;;;;;33.90;17.20;;;;;;;-2.05;100.00;98443.29;109111;1231;61314;-76
2023/01/28 06:16:27;;;;;;;35.50;17.90;;;;;;;-2.02;100.00;98446.99;111176;1231;61232;-78
2023/01/28 06:18:53;;;;;;;37.30;17.70;;;;;;;-2.03;100.00;98448.83;109497;1231;61301;-76
2023/01/28 06:21:19;;;;;;;30.70;17.80;;;;;;;-2.02;100.00;98447.92;109374;1232;61415;-76
2023/01/28 06:23:46;;;;;;;40.00;23.60;;;;;;;-2.03;100.00;98452.96;109464;1236;61337;-78
2023/01/28 06:26:13;;;;;;;44.20;22.00;;;;;;;-2.00;100.00;98459.23;110796;1231;61139;-78
2023/01/28 06:28:39;;;;;;;31.00;16.70;;;;;;;-2.10;100.00;98462.92;109723;1231;61168;-77
2023/01/28 06:31:06;;;;;;;57.10;33.20;;;;;;;-2.14;100.00;98467.85;108993;1231;61251;-76
2023/01/28 06:33:32;;;;;;;32.60;16.70;;;;;;;-2.16;100.00;98470.61;109192;1236;61697;-78
2023/01/28 06:36:02;;;;;;;54.00;30.00;;;;;;;-2.16;100.00;98472.73;109946;1236;61251;-76
2023/01/28 06:38:29;;;;;;;47.80;21.80;;;;;;;-2.22;100.00;98474.15;109804;1236;70949;-76
2023/01/28 06:40:57;;;;;;;372.20;268.10;;;;;;;-2.27;100.00;98475.67;108992;1236;61293;-77
2023/01/28 06:43:29;;;;;;;73.20;55.70;;;;;;;-2.22;100.00;98483.88;109100;1232;61216;-76
2023/01/28 06:45:56;;;;;;;41.50;23.00;;;;;;;-2.25;100.00;98488.11;109439;1231;61312;-78
2023/01/28 06:48:23;;;;;;;46.10;22.10;;;;;;;-2.23;100.00;98489.71;109060;1231;74502;-77
2023/01/28 06:50:50;;;;;;;42.70;20.90;;;;;;;-2.21;100.00;98495.61;109146;1236;69804;-76
2023/01/28 06:53:16;;;;;;;37.10;18.40;;;;;;;-2.25;100.00;98497.48;109441;1231;61335;-77
2023/01/28 06:55:43;;;;;;;32.20;16.30;;;;;;;-2.27;100.00;98494.52;110856;1231;61207;-78
2023/01/28 06:58:09;;;;;;;33.00;15.30;;;;;;;-2.21;100.00;98499.31;110539;1233;61120;-76
2023/01/28 07:00:36;;;;;;;29.50;15.00;;;;;;;-2.22;100.00;98500.00;109249;1236;61086;-77
2023/01/28 07:03:03;;;;;;;37.70;21.00;;;;;;;-2.24;100.00;98499.35;109287;1237;70478;-78
2023/01/28 07:05:30;;;;;;;41.20;19.00;;;;;;;-2.17;100.00;98502.95;109504;1234;72109;-76
2023/01/28 07:07:56;;;;;;;44.60;21.50;;;;;;;-2.14;100.00;98500.77;110068;1236;61261;-76
2023/01/28 07:10:22;;;;;;;40.60;21.40;;;;;;;-2.11;100.00;98510.71;109438;1237;61710;-78
2023/01/28 07:12:49;;;;;;;33.30;18.20;;;;;;;-2.10;100.00;98513.58;109045;1236;61244;-77
2023/01/28 07:15:16;;;;;;;39.90;21.60;;;;;;;-2.16;100.00;98516.73;110090;1232;61146;-76
2023/01/28 07:17:43;;;;;;;31.80;16.20;;;;;;;-2.20;100.00;98521.73;111153;1231;72429;-77
2023/01/28 07:20:11;;;;;;;29.40;14.40;;;;;;;-2.17;100.00;98520.64;109792;1231;61299;-78
2023/01/28 07:22:39;;;;;;;35.90;17.40;;;;;;;-2.17;100.00;98520.36;110306;1236;61223;-77
2023/01/28 07:25:06;;;;;;;39.50;19.90;;;;;;;-2.16;100.00;98527.27;109546;1236;74457;-78
2023/01/28 07:27:33;;;;;;;111.90;53.60;;;;;;;-2.11;100.00;98525.42;110890;1233;70653;-76
2023/01/28 07:29:59;;;;;;;78.50;41.60;;;;;;;-2.08;100.00;98527.98;109246;1231;72799;-76
2023/01/28 07:32:26;;;;;;;87.20;55.90;;;;;;;-2.07;100.00;98533.52;109044;1236;61216;-77
2023/01/28 07:34:53;;;;;;;64.40;37.30;;;;;;;-2.09;100.00;98537.20;109291;1231;61203;-78
2023/01/28 07:37:19;;;;;;;73.20;43.10;;;;;;;-2.09;100.00;98538.19;110872;1231;74939;-76
2023/01/28 07:39:46;;;;;;;47.60;22.60;;;;;;;-2.05;100.00;98539.17;109164;1235;70414;-78
2023/01/28 07:42:13;;;;;;;808.80;337.30;;;;;;;-2.04;100.00;98540.95;108974;1236;61357;-77
2023/01/28 07:44:40;;;;;;;290.90;110.50;;;;;;;-2.03;100.00;98539.41;109046;1231;61321;-76
2023/01/28 07:47:06;;;;;;;657.90;258.80;;;;;;;-2.10;100.00;98539.36;110428;1232;61223;-76
2023/01/28 07:49:33;;;;;;;283.00;101.00;;;;;;;-2.06;100.00;98537.33;109530;1232;61312;-77
2023/01/28 07:52:00;;;;;;;615.00;243.90;;;;;;;-2.01;100.00;98538.66;108776;1240;69884;-79
2023/01/28 07:54:26;;;;;;;315.10;120.10;;;;;;;-2.00;100.00;98537.30;109257;1236;61173;-77
2023/01/28 07:56:53;;;;;;;169.10;68.10;;;;;;;-1.94;100.00;98542.12;111292;1231;59286;-78
2023/01/28 07:59:19;;;;;;;72.20;31.40;;;;;;;-1.92;100.00;98546.40;109007;1231;61229;-79
2023/01/28 08:01:45;;;;;;;134.00;57.60;;;;;;;-1.91;100.00;98543.83;109057;1232;61209;-79
2023/01/28 08:04:12;;;;;;;168.80;80.30;;;;;;;-1.94;99.96;98540.25;109164;1234;62691;-78
2023/01/28 08:06:38;;;;;;;115.00;46.40;;;;;;;-1.87;100.00;98539.03;111398;1231;61192;-79
2023/01/28 08:09:07;;;;;;;132.80;68.50;;;;;;;-1.92;99.93;98539.65;109416;1232;61334;-77
2023/01/28 08:11:36;;;;;;;83.20;43.00;;;;;;;-1.80;100.00;98540.13;109292;1231;61162;-77
2023/01/28 08:14:02;;;;;;;;;;;;;;;-1.75;100.00;98536.48;109079;1232;74439;-77
2023/01/28 08:16:28;;;;;;;169.80;70.40;;;;;;;-1.70;99.93;98537.36;111237;1231;61201;-77
2023/01/28 08:18:55;;;;;;;206.30;79.40;;;;;;;-1.67;99.85;98541.15;109106;1231;61258;-79
2023/01/28 08:21:21;;;;;;;173.70;65.00;;;;;;;-1.65;99.73;98541.01;109123;1237;61293;-77
2023/01/28 08:23:48;;;;;;;80.10;36.30;;;;;;;-1.63;99.63;98546.26;108823;1231;61310;-77
2023/01/28 08:26:14;;;;;;;94.80;37.60;;;;;;;-1.63;99.85;98545.64;110877;1231;61236;-77
2023/01/28 08:28:41;;;;;;;96.40;39.80;;;;;;;-1.57;100.00;98550.48;109248;1236;61213;-77
2023/01/28 08:31:07;;;;;;;49.60;24.40;;;;;;;-1.47;99.95;98547.23;109222;1237;61304;-77
2023/01/28 08:33:33;;;;;;;61.40;30.20;;;;;;;-1.36;99.98;98550.62;109027;1237;61334;-77
2023/01/28 08:36:03;;;;;;;118.20;46.30;;;;;;;-1.25;99.51;98551.78;109444;1231;61181;-79
2023/01/28 08:38:29;;;;;;;100.90;42.80;;;;;;;-1.18;99.31;98555.11;108779;1232;74469;-77
2023/01/28 08:40:56;;;;;;;83.10;41.00;;;;;;;-1.14;99.21;98559.09;109158;1231;61353;-76
2023/01/28 08:43:23;;;;;;;91.30;44.70;;;;;;;-1.15;98.60;98557.80;109289;1232;72415;-78
2023/01/28 08:45:51;;;;;;;50.50;28.50;;;;;;;-1.11;98.69;98553.95;110561;1231;61124;-78
2023/01/28 08:48:17;;;;;;;50.80;25.60;;;;;;;-1.08;98.47;98553.96;110002;1236;61223;-77
2023/01/28 08:50:44;;;;;;;35.30;19.10;;;;;;;-1.06;97.81;98551.20;109056;1237;74352;-77
2023/01/28 08:53:15;;;;;;;91.90;42.60;;;;;;;-1.06;98.06;98557.75;109065;1232;61313;-78
2023/01/28 08:55:41;;;;;;;43.40;23.00;;;;;;;-1.15;97.22;98571.38;109556;1231;71304;-79
2023/01/28 08:58:13;;;;;;;45.80;23.90;;;;;;;-1.21;96.68;98566.99;109304;1237;61312;-79
2023/01/28 09:00:39;;;;;;;44.20;21.60;;;;;;;-1.31;96.34;98571.19;109381;1231;61200;-78
2023/01/28 09:03:06;;;;;;;30.00;14.70;;;;;;;-1.33;96.59;98568.59;109289;1237;216871;-77
2023/01/28 09:05:36;;;;;;;23.70;12.60;;;;;;;-1.27;96.93;98571.02;108948;1232;61302;-77
2023/01/28 09:08:03;;;;;;;49.90;23.10;;;;;;;-1.21;96.72;98573.77;109153;1233;72713;-78
2023/01/28 09:10:30;;;;;;;33.90;18.80;;;;;;;-1.31;96.26;98576.06;109162;1231;62069;-78
2023/01/28 09:12:56;;;;;;;35.60;18.50;;;;;;;-1.28;97.15;98570.61;108877;1237;61296;-78
2023/01/28 09:15:23;;;;;;;45.50;25.80;;;;;;;-1.23;97.14;98576.02;109707;1234;61147;-77
2023/01/28 09:17:49;;;;;;;93.10;53.20;;;;;;;-1.16;97.55;98575.13;109843;1236;61195;-77
2023/01/28 09:20:16;;;;;;;75.80;36.90;;;;;;;-1.16;97.17;98579.27;109203;1238;61267;-77
2023/01/28 09:22:42;;;;;;;118.60;64.50;;;;;;;-1.32;95.93;98582.10;108979;1237;61209;-77
2023/01/28 09:25:09;;;;;;;51.60;27.70;;;;;;;-1.28;96.64;98577.81;109978;1232;61128;-78
2023/01/28 09:27:35;;;;;;;28.80;15.70;;;;;;;-1.30;96.82;98580.45;109887;1231;61210;-78
2023/01/28 09:30:02;;;;;;;28.70;15.90;;;;;;;-1.27;96.87;98579.27;108903;1238;61360;-78
2023/01/28 09:32:30;;;;;;;23.30;11.90;;;;;;;-1.34;96.87;98578.77;108739;1241;61367;-79
2023/01/28 09:34:56;;;;;;;28.80;14.70;;;;;;;-1.28;97.30;98575.11;109057;1237;61231;-77
2023/01/28 09:37:23;;;;;;;33.00;17.00;;;;;;;-1.21;97.59;98579.10;110357;1232;61261;-79
2023/01/28 09:39:49;;;;;;;32.80;14.90;;;;;;;-1.24;97.12;98581.61;109036;1237;61233;-77
2023/01/28 09:42:38;;;;;;;24.70;12.50;;;;;;;-1.27;96.87;98579.83;109049;1236;61216;-77
2023/01/28 09:45:14;;;;;;;28.60;15.80;;;;;;;-1.20;96.90;98577.56;109361;1232;72335;-77
2023/01/28 09:47:53;;;;;;;37.70;17.20;;;;;;;-1.15;96.93;98579.44;110340;1236;61239;-78
2023/01/28 09:50:30;;;;;;;30.30;16.70;;;;;;;-1.17;96.02;98578.02;109670;1243;61265;-78
2023/01/28 09:53:01;;;;;;;26.60;16.20;;;;;;;-1.17;96.04;98580.16;109107;1237;73678;-78
2023/01/28 09:55:33;;;;;;;23.60;13.50;;;;;;;-1.15;96.31;98580.63;110058;1231;69875;-78
2023/01/28 09:58:00;;;;;;;24.10;11.90;;;;;;;-1.03;97.01;98572.99;109640;1236;72423;-79
2023/01/28 10:00:32;;;;;;;29.40;15.40;;;;;;;-1.02;96.79;98572.84;109082;1231;61318;-79
2023/01/28 10:03:12;;;;;;;59.70;31.80;;;;;;;-1.10;96.33;98575.40;108990;1237;61184;-78
2023/01/28 10:05:50;;;;;;;44.60;22.00;;;;;;;-1.01;96.68;98569.30;110011;1232;74454;-77
2023/01/28 10:08:36;;;;;;;30.40;16.30;;;;;;;-1.01;96.72;98571.09;110820;1240;70996;-78
2023/01/28 10:11:13;;;;;;;32.00;14.30;;;;;;;-0.99;96.68;98575.15;108989;1235;72453;-77
2023/01/28 10:13:58;;;;;;;27.70;13.00;;;;;;;-0.96;97.12;98568.11;109264;1234;61300;-78
2023/01/28 10:16:36;;;;;;;49.60;24.10;;;;;;;-1.03;96.67;98574.55;110564;1235;59994;-79
2023/01/28 10:19:26;;;;;;;34.10;19.50;;;;;;;-1.07;97.02;98577.70;109015;1232;74457;-78
2023/01/28 10:22:14;;;;;;;31.40;17.10;;;;;;;-1.26;96.79;98576.03;109354;1237;62298;-78
2023/01/28 10:24:44;;;;;;;34.60;17.70;;;;;;;-1.37;97.19;98574.58;109057;1238;71496;-78
2023/01/28 10:27:18;;;;;;;27.70;14.70;;;;;;;-1.41;97.54;98573.23;110152;1238;61377;-77
2023/01/28 10:29:45;;;;;;;70.60;31.20;;;;;;;-1.46;98.32;98574.69;109099;1232;61178;-78
2023/01/28 10:32:29;;;;;;;33.40;17.00;;;;;;;-1.49;98.76;98576.70;109382;1232;73316;-76
2023/01/28 10:34:58;;;;;;;46.40;24.00;;;;;;;-1.48;98.35;98573.81;108989;1238;62469;-78
2023/01/28 10:37:24;;;;;;;;;;;;;;;-1.37;98.90;98571.71;110493;1237;72685;-77
2023/01/28 10:39:53;;;;;;;45.10;21.30;;;;;;;-1.37;99.05;98571.66;109145;1232;61120;-76
2023/01/28 10:42:26;;;;;;;78.50;38.50;;;;;;;-1.38;98.75;98573.09;109225;1238;61200;-77
2023/01/28 10:45:15;;;;;;;98.80;51.50;;;;;;;-1.43;98.23;98576.64;109171;1232;73715;-77
2023/01/28 10:47:45;;;;;;;43.80;22.70;;;;;;;-1.44;97.90;98571.98;110287;1232;70919;-77
2023/01/28 10:50:30;;;;;;;89.60;50.00;;;;;;;-1.42;97.87;98569.29;109698;1236;71955;-79
2023/01/28 10:52:58;;;;;;;52.50;28.30;;;;;;;-1.53;98.07;98573.34;108865;1237;61303;-77
2023/01/28 10:55:57;;;;;;;33.70;15.60;;;;;;;-1.62;98.81;98572.71;109210;1237;61175;-79
2023/01/28 10:58:24;;;;;;;64.00;41.10;;;;;;;-1.55;98.89;98568.38;109318;1233;73316;-77
2023/01/28 11:00:53;;;;;;;38.70;17.40;;;;;;;-1.41;98.93;98568.48;109050;1236;69824;-79
2023/01/28 11:03:20;;;;;;;23.50;11.50;;;;;;;-1.32;97.94;98569.27;109074;1232;63809;-79
2023/01/28 11:05:51;;;;;;;33.50;18.90;;;;;;;-1.18;97.34;98567.52;110692;1232;61173;-79
2023/01/28 11:08:18;;;;;;;24.30;12.90;;;;;;;-1.20;96.20;98565.73;109748;1237;61105;-79
2023/01/28 11:10:45;;;;;;;26.40;13.50;;;;;;;-1.00;96.77;98559.80;109506;1232;73294;-79
2023/01/28 11:13:21;;;;;;;46.10;30.70;;;;;;;-1.00;95.75;98561.67;109783;1232;71330;-79
2023/01/28 11:15:57;;;;;;;36.80;22.60;;;;;;;-1.02;95.42;98554.17;110066;1237;71852;-79
2023/01/28 11:18:28;;;;;;;54.50;32.50;;;;;;;-0.88;96.27;98557.85;110047;1239;61188;-79
2023/01/28 11:21:05;;;;;;;24.20;12.70;;;;;;;-0.96;94.04;98552.76;108769;1232;61234;-79
2023/01/28 11:23:33;;;;;;;27.10;14.20;;;;;;;-0.85;95.01;98558.40;109293;1234;75034;-77
2023/01/28 11:26:01;;;;;;;25.90;13.00;;;;;;;-0.92;93.61;98558.36;110119;1232;70957;-77
2023/01/28 11:28:27;;;;;;;26.10;15.40;;;;;;;-0.93;93.91;98558.19;109119;1236;72471;-77
2023/01/28 11:30:55;;;;;;;24.60;12.60;;;;;;;-0.94;94.06;98560.05;109327;1237;61332;-78
2023/01/28 11:33:27;;;;;;;45.60;18.90;;;;;;;-0.92;94.47;98557.86;109025;1236;61207;-77
2023/01/28 11:35:55;;;;;;;24.30;13.80;;;;;;;-0.87;94.70;98560.27;110435;1232;74485;-77
2023/01/28 11:38:25;;;;;;;25.90;16.10;;;;;;;-0.96;93.81;98561.52;109657;1232;70805;-78
2023/01/28 11:40:52;;;;;;;46.60;20.40;;;;;;;-0.94;94.55;98559.36;109137;1238;72459;-79
2023/01/28 11:43:28;;;;;;;36.00;19.00;;;;;;;-0.91;95.43;98562.30;109313;1232;61331;-78
2023/01/28 11:46:06;;;;;;;29.60;16.50;;;;;;;-0.93;95.00;98559.58;109893;1232;61326;-77
2023/01/28 11:49:18;;;;;;;29.10;14.60;;;;;;;-1.10;94.87;98562.25;109355;1236;74404;-77